createdAt,value
2023-05-09T00:00:23.831Z,9.60
2023-05-09T00:05:30.967Z,9.60
2023-05-09T00:10:37.905Z,9.50
2023-05-09T00:15:45.030Z,9.50
2023-05-09T00:20:53.343Z,9.60
2023-05-09T00:26:01.966Z,9.40
2023-05-09T00:31:08.797Z,9.40
2023-05-09T00:36:15.614Z,9.40
2023-05-09T00:41:22.757Z,9.40
2023-05-09T00:46:30.558Z,9.30
2023-05-09T00:51:41.308Z,9.40
2023-05-09T00:56:48.413Z,9.40
2023-05-09T01:01:56.547Z,9.40
2023-05-09T01:07:36.561Z,9.50
2023-05-09T01:12:51.597Z,9.50
2023-05-09T01:18:11.615Z,9.60
2023-05-09T01:23:47.073Z,9.40
2023-05-09T01:29:34.305Z,9.50
2023-05-09T01:34:43.234Z,9.40
2023-05-09T01:39:54.123Z,9.40
2023-05-09T01:45:02.615Z,9.50
2023-05-09T01:50:12.793Z,9.30
2023-05-09T01:55:21.670Z,9.60
2023-05-09T02:00:29.462Z,9.60
2023-05-09T02:05:37.623Z,9.40
2023-05-09T02:10:46.604Z,9.40
2023-05-09T02:15:54.596Z,9.50
2023-05-09T02:21:01.976Z,9.40
2023-05-09T02:26:09.437Z,9.40
2023-05-09T02:31:18.764Z,9.40
2023-05-09T02:36:26.885Z,9.40
2023-05-09T02:41:33.740Z,9.50
2023-05-09T02:46:40.962Z,9.70
2023-05-09T02:51:47.769Z,9.70
2023-05-09T02:56:54.616Z,9.60
2023-05-09T03:02:01.499Z,9.60
2023-05-09T03:07:08.732Z,9.60
2023-05-09T03:12:16.222Z,9.50
2023-05-09T03:17:23.543Z,9.50
2023-05-09T03:22:30.411Z,9.50
2023-05-09T03:27:37.224Z,9.50
2023-05-09T03:32:44.301Z,9.60
2023-05-09T03:37:51.304Z,9.60
2023-05-09T03:42:59.043Z,9.60
2023-05-09T03:48:08.536Z,9.30
2023-05-09T03:53:15.374Z,9.20
2023-05-09T03:58:22.423Z,9.20
2023-05-09T04:03:29.431Z,8.90
2023-05-09T04:08:36.603Z,8.90
2023-05-09T04:13:43.406Z,9.10
2023-05-09T04:18:50.433Z,9.00
2023-05-09T04:23:57.469Z,9.00
2023-05-09T04:29:04.382Z,9.00
2023-05-09T04:34:11.857Z,8.80
2023-05-09T04:39:20.054Z,8.90
2023-05-09T04:44:27.178Z,8.90
2023-05-09T04:49:34.265Z,8.90
2023-05-09T04:54:41.465Z,8.80
2023-05-09T04:59:48.330Z,8.80
2023-05-09T05:05:06.190Z,8.80
2023-05-09T05:10:03.859Z,8.60
2023-05-09T05:15:11.980Z,8.60
2023-05-09T05:20:18.992Z,8.60
2023-05-09T05:25:26.422Z,8.60
2023-05-09T05:30:34.636Z,8.80
2023-05-09T05:35:41.548Z,8.70
2023-05-09T05:40:48.601Z,8.50
2023-05-09T05:45:56.140Z,8.50
2023-05-09T05:51:03.249Z,8.60
2023-05-09T05:56:10.233Z,8.40
2023-05-09T06:01:17.736Z,8.50
2023-05-09T06:06:25.351Z,8.50
2023-05-09T06:11:34.665Z,8.60
2023-05-09T06:16:41.688Z,8.40
2023-05-09T06:21:48.674Z,8.40
2023-05-09T06:26:56.108Z,8.40
2023-05-09T06:32:03.166Z,8.60
2023-05-09T06:37:10.433Z,8.70
2023-05-09T06:42:17.450Z,8.80
2023-05-09T06:47:24.326Z,8.80
2023-05-09T06:52:31.522Z,9.00
2023-05-09T06:57:38.457Z,9.10
2023-05-09T07:02:45.854Z,8.80
2023-05-09T07:07:54.362Z,8.80
2023-05-09T07:13:01.984Z,8.90
2023-05-09T07:18:09.421Z,8.70
2023-05-09T07:23:17.363Z,8.80
2023-05-09T07:28:25.242Z,8.60
2023-05-09T07:33:32.331Z,8.70
2023-05-09T07:38:40.093Z,8.80
2023-05-09T07:43:47.272Z,8.70
2023-05-09T07:48:54.261Z,8.60
2023-05-09T07:54:01.673Z,8.70
2023-05-09T07:59:08.798Z,8.90
2023-05-09T08:04:15.722Z,8.70
2023-05-09T08:09:22.674Z,8.80
2023-05-09T08:14:30.175Z,8.90
2023-05-09T08:19:37.204Z,8.70
2023-05-09T08:24:45.963Z,8.70
2023-05-09T08:29:53.039Z,9.00
2023-05-09T08:35:00.166Z,8.90
2023-05-09T08:40:11.270Z,8.80
2023-05-09T08:45:22.094Z,8.90
2023-05-09T08:50:29.424Z,9.00
2023-05-09T08:55:36.358Z,9.20
2023-05-09T09:00:46.635Z,9.50
2023-05-09T09:05:55.992Z,9.40
2023-05-09T09:11:03.011Z,9.50
2023-05-09T09:16:14.483Z,9.60
2023-05-09T09:21:23.885Z,9.60
2023-05-09T09:26:32.055Z,9.80
2023-05-09T09:31:39.213Z,10.00
2023-05-09T09:36:47.457Z,9.90
2023-05-09T09:41:55.532Z,10.00
2023-05-09T09:47:04.754Z,10.00
2023-05-09T09:52:11.693Z,9.90
2023-05-09T09:57:40.573Z,10.00
2023-05-09T10:02:53.560Z,10.10
2023-05-09T10:08:03.187Z,10.10
2023-05-09T10:13:15.437Z,10.20
2023-05-09T10:18:27.258Z,10.20
2023-05-09T10:23:38.750Z,10.00
2023-05-09T10:28:49.752Z,10.10
2023-05-09T10:33:57.576Z,9.90
2023-05-09T10:39:04.735Z,9.90
2023-05-09T10:44:12.443Z,10.10
2023-05-09T10:49:21.212Z,10.30
2023-05-09T10:54:37.519Z,10.30
2023-05-09T10:59:46.980Z,10.40
2023-05-09T11:05:14.784Z,10.40
2023-05-09T11:10:21.837Z,10.70
2023-05-09T11:15:29.734Z,10.60
2023-05-09T11:20:43.091Z,10.50
2023-05-09T11:25:51.656Z,10.50
2023-05-09T11:31:17.624Z,10.20
2023-05-09T11:36:35.898Z,10.50
2023-05-09T11:41:46.120Z,10.70
2023-05-09T11:46:52.985Z,10.90
2023-05-09T11:52:03.501Z,10.70
2023-05-09T11:57:11.375Z,10.80
2023-05-09T12:02:18.529Z,11.20
2023-05-09T12:07:27.143Z,11.30
2023-05-09T12:12:37.663Z,11.00
2023-05-09T12:17:47.388Z,11.20
2023-05-09T12:22:58.087Z,11.00
2023-05-09T12:28:05.404Z,11.20
2023-05-09T12:33:13.857Z,11.60
2023-05-09T12:38:25.565Z,11.90
2023-05-09T12:43:39.925Z,11.80
2023-05-09T12:48:48.568Z,11.60
2023-05-09T12:53:55.534Z,11.70
2023-05-09T12:59:02.661Z,11.80
2023-05-09T13:04:12.665Z,11.80
2023-05-09T13:09:20.819Z,11.70
2023-05-09T13:14:28.877Z,11.90
2023-05-09T13:19:37.622Z,11.80
2023-05-09T13:24:44.838Z,11.70
2023-05-09T13:29:52.047Z,11.90
2023-05-09T13:34:59.053Z,11.70
2023-05-09T13:40:06.702Z,11.80
2023-05-09T13:45:15.529Z,12.00
2023-05-09T13:50:23.101Z,11.90
2023-05-09T13:55:31.241Z,12.00
2023-05-09T14:00:38.313Z,11.80
2023-05-09T14:05:45.511Z,11.90
2023-05-09T14:10:52.576Z,12.10
2023-05-09T14:15:59.418Z,12.30
2023-05-09T14:21:06.656Z,12.30
2023-05-09T14:26:14.184Z,12.10
2023-05-09T14:31:21.319Z,12.40
2023-05-09T14:36:30.034Z,12.40
2023-05-09T14:41:36.972Z,12.20
2023-05-09T14:46:44.553Z,12.30
2023-05-09T14:51:53.264Z,12.40
2023-05-09T14:57:02.042Z,12.40
2023-05-09T15:02:09.866Z,12.60
2023-05-09T15:07:17.063Z,12.40
2023-05-09T15:12:24.035Z,12.40
2023-05-09T15:17:31.214Z,12.40
2023-05-09T15:22:38.029Z,12.20
2023-05-09T15:27:44.901Z,12.10
2023-05-09T15:32:51.992Z,12.40
2023-05-09T15:37:59.132Z,12.30
2023-05-09T15:43:08.322Z,12.10
2023-05-09T15:48:17.031Z,12.30
2023-05-09T15:53:24.252Z,12.40
2023-05-09T15:58:31.646Z,12.50
2023-05-09T16:03:38.828Z,12.60
2023-05-09T16:08:47.412Z,12.60
2023-05-09T16:13:54.585Z,12.40
2023-05-09T16:19:03.159Z,12.20
2023-05-09T16:24:11.596Z,12.10
2023-05-09T16:29:18.926Z,12.10
2023-05-09T16:34:25.868Z,12.00
2023-05-09T16:39:33.123Z,11.90
2023-05-09T16:44:39.940Z,12.10
2023-05-09T16:49:47.291Z,12.10
2023-05-09T16:54:55.135Z,12.00
2023-05-09T17:00:02.036Z,12.00
2023-05-09T17:05:10.755Z,12.00
2023-05-09T17:10:18.511Z,11.90
2023-05-09T17:15:25.839Z,11.80
2023-05-09T17:20:32.808Z,11.80
2023-05-09T17:25:39.555Z,11.50
2023-05-09T17:30:46.554Z,11.40
2023-05-09T17:35:53.503Z,11.30
2023-05-09T17:41:00.378Z,11.20
2023-05-09T17:46:08.380Z,11.00
2023-05-09T17:51:15.524Z,11.00
2023-05-09T17:56:22.814Z,10.90
2023-05-09T18:01:29.759Z,10.80
2023-05-09T18:06:36.868Z,10.70
2023-05-09T18:11:44.878Z,10.70
2023-05-09T18:16:51.998Z,10.60
2023-05-09T18:21:59.732Z,10.30
2023-05-09T18:27:06.829Z,10.30
2023-05-09T18:32:14.162Z,10.30
2023-05-09T18:37:22.488Z,10.30
2023-05-09T18:42:30.798Z,10.20
2023-05-09T18:47:38.320Z,10.30
2023-05-09T18:52:46.225Z,10.20
2023-05-09T18:57:53.708Z,10.20
2023-05-09T19:03:00.647Z,10.10
2023-05-09T19:08:07.856Z,10.20
2023-05-09T19:13:16.441Z,10.20
2023-05-09T19:18:23.769Z,10.10
2023-05-09T19:23:30.601Z,10.10
2023-05-09T19:28:39.557Z,10.20
2023-05-09T19:33:47.898Z,10.00
2023-05-09T19:38:54.886Z,10.10
2023-05-09T19:44:01.811Z,9.90
2023-05-09T19:49:09.608Z,9.80
2023-05-09T19:54:16.644Z,9.80
2023-05-09T19:59:26.400Z,9.60
2023-05-09T20:04:38.164Z,9.50
2023-05-09T20:09:46.278Z,9.50
2023-05-09T20:14:53.295Z,9.50
2023-05-09T20:20:00.472Z,9.50
2023-05-09T20:25:09.326Z,9.40
2023-05-09T20:30:17.712Z,9.40
2023-05-09T20:35:25.117Z,9.50
2023-05-09T20:40:31.955Z,9.50
2023-05-09T20:45:38.954Z,9.50
2023-05-09T20:50:46.094Z,9.60
2023-05-09T20:55:53.044Z,9.60
2023-05-09T21:01:01.185Z,9.60
2023-05-09T21:06:08.256Z,9.60
2023-05-09T21:11:15.571Z,9.50
2023-05-09T21:16:23.414Z,9.50
2023-05-09T21:21:33.525Z,9.50
2023-05-09T21:26:40.667Z,9.50
2023-05-09T21:31:47.936Z,9.50
2023-05-09T21:36:54.996Z,9.50
2023-05-09T21:42:01.957Z,9.60
2023-05-09T21:47:09.149Z,9.50
2023-05-09T21:52:16.771Z,9.50
2023-05-09T21:57:23.819Z,9.50
2023-05-09T22:02:31.886Z,9.40
2023-05-09T22:07:38.879Z,9.40
2023-05-09T22:12:45.622Z,9.40
2023-05-09T22:17:52.587Z,9.40
2023-05-09T22:22:59.868Z,9.30
2023-05-09T22:28:07.401Z,9.30
2023-05-09T22:33:14.513Z,9.40
2023-05-09T22:38:21.722Z,9.30
2023-05-09T22:43:33.849Z,9.40
2023-05-09T22:48:37.364Z,9.30
2023-05-09T22:53:44.321Z,9.20
2023-05-09T22:58:51.609Z,9.10
2023-05-09T23:03:58.780Z,8.90
2023-05-09T23:09:05.710Z,8.90
2023-05-09T23:14:12.807Z,8.80
2023-05-09T23:19:20.546Z,8.80
2023-05-09T23:24:27.709Z,8.70
2023-05-09T23:29:34.687Z,8.60
2023-05-09T23:34:41.582Z,8.60
2023-05-09T23:39:48.441Z,8.60
2023-05-09T23:44:55.304Z,8.60
2023-05-09T23:50:02.395Z,8.70
2023-05-09T23:55:11.105Z,8.50
